Accueil
METAR-TAF:

METAR-TAF

Aéroports :

St. George Municipal Airport

Saint George, Utah, États-Unis

latitude: 37-05N, longitude: 113-36W, altitude: 896 m

Observation

Le bulletin a été fait il y a 46 minutes, à 16:56 UTC
Vent calme
Température 10°C
Humidité 27%
Pression 1023 hPa
Visibilité: 16.1 km
Ciel clair

METAR: KSGU 141656Z AUTO 00000KT 10SM CLR 10/M08 A3021 RMK AO2 SLP222 T01001083

Heure: 10:42 (17:42 UTC)

Prévision

Le bulletin a été fait il y a 6 heures et 22 minutes, à 11:20 UTC
Prévision valable du 14 à 12 UTC au 15 à 12 UTC
Vent 4 kt de direction variable
Visibilité: 10 km
Nuages épars à une hauteur de 20000 ft

TAF: KSGU 141120Z 1412/1512 VRB04KT P6SM SCT200

Observations et prévisions météorologiques de plus de 4000 aéroports (messages METAR et TAF).

Les stations disponibles sont représentées par des disques jaunes et rouges sur la carte.

Passer la souris dessus pour voir le nom de la station.

Cliquer dessus pour voir les observations et prévisions météorologiques.

Pour changer de carte: cliquez sur les boutons verts avec une croix noire pour zoomer, sur le bouton vert avec un tiret pour effectuer un zoom arrière, ou sur les flèches vertes pour les cartes adjacentes.


METAR-TAF: